»·PEaware :: VIR232 KLAS-EGLL

VIR232 :: KLAS-EGLL

FLIGHT INFORMATION

Flight Status: Arrived
Operator:
Virgin Atlantic Airways
More flights by this operator :: More flights under this callsign
Pilot: Kyle K. (11122)
Aircraft: Unknown
(A359)
More flights by this aircraft type
Origin: KLAS McCarran Intl
United States
Destination: EGLL Heathrow
United Kingdom
More flights between these airports :: More routes between these airports
Route: STAAV8 MLF BOY ISN YNE YGX 59N090W BODRA YFB/N0493F370 MUSVA/M085F370 CLAVY 64N050W 64N040W 64N030W 63N020W ATSIX/N0498F370 UP60 AKIVO UN601 STN UL612 LAKEY NUGRA
File this flight plan on PilotEdge
Remarks:
Altitude:
(Current/Filed)
35,000ft
Speed:
(Current/Filed)
502kts
Departed: 25-Aug-20 12:45 AM
Arrived: 25-Aug-20 10:20 AM
Distance/Time
Traveled:
4530nm/9:35
Distance/Time
To Go:
Arrived

Flight Plot

Page will automatically refresh every two minutes.

Flight plan parsing failed; only flown route is shown


Map Options




Map Legend


Flown Route
Filed Route
Departure Airport
Arrival Airport
Navaid (VOR, NDB)
Fix

Horizontal Profiles

Position Reports

Time Latitude Longitude Heading Altitude Ground
Speed
25-Aug-20 00:31 36.085304 -115.134436 0 2192ft 0kts
25-Aug-20 00:32 36.085304 -115.134436 0 2192ft 0kts
25-Aug-20 00:33 36.085304 -115.134436 0 2192ft 0kts
25-Aug-20 00:34 36.084859 -115.134485 23 2192ft 2kts
25-Aug-20 00:35 36.084465 -115.135013 74 2192ft 2kts
25-Aug-20 00:36 36.084436 -115.135267 91 2192ft 0kts
25-Aug-20 00:37 36.084436 -115.135267 91 2192ft 0kts
25-Aug-20 00:38 36.084411 -115.135018 104 2192ft 3kts
25-Aug-20 00:39 36.082657 -115.132954 173 2192ft 10kts
25-Aug-20 00:40 36.078503 -115.132928 180 2192ft 14kts
25-Aug-20 00:41 36.077595 -115.127758 89 2192ft 19kts
25-Aug-20 00:42 36.077516 -115.121612 117 2192ft 11kts
25-Aug-20 00:43 36.076463 -115.121628 267 2192ft 1kts
25-Aug-20 00:44 36.076428 -115.159195 270 2233ft 202kts
25-Aug-20 00:45 36.076558 -115.224514 269 4553ft 204kts
25-Aug-20 00:46 36.099849 -115.289352 344 5699ft 250kts
25-Aug-20 00:47 36.164106 -115.275744 51 7632ft 262kts
25-Aug-20 00:48 36.182022 -115.185978 89 8812ft 296kts
25-Aug-20 00:49 36.186547 -115.080875 87 10424ft 316kts
25-Aug-20 00:50 36.192106 -114.965217 87 11321ft 358kts
25-Aug-20 00:51 36.198144 -114.838695 87 12969ft 374kts
25-Aug-20 00:52 36.251124 -114.733517 36 14717ft 384kts
25-Aug-20 00:53 36.337448 -114.652224 37 16351ft 396kts
25-Aug-20 00:54 36.425707 -114.568352 37 17961ft 405kts
25-Aug-20 00:55 36.516113 -114.482514 37 19477ft 415kts
25-Aug-20 00:56 36.613464 -114.402354 31 20943ft 424kts
25-Aug-20 00:57 36.714122 -114.324538 32 22541ft 428kts
25-Aug-20 00:58 36.816381 -114.244760 32 23530ft 447kts
25-Aug-20 00:59 36.925108 -114.159964 32 24130ft 476kts
25-Aug-20 01:00 37.039751 -114.070284 31 25076ft 496kts
25-Aug-20 01:01 37.158634 -113.977146 31 26172ft 510kts
25-Aug-20 01:02 37.279463 -113.882206 31 27416ft 519kts
25-Aug-20 01:03 37.402525 -113.784863 31 28753ft 524kts
25-Aug-20 01:04 37.524770 -113.687763 31 30376ft 520kts
25-Aug-20 01:05 37.646293 -113.590863 31 31797ft 517kts
25-Aug-20 01:06 37.767051 -113.494198 31 33096ft 514kts
25-Aug-20 01:07 37.886861 -113.397918 31 34243ft 511kts
25-Aug-20 01:08 38.006245 -113.301353 32 35185ft 509kts
25-Aug-20 01:09 38.125037 -113.204964 32 35192ft 508kts
25-Aug-20 01:10 38.243860 -113.108694 32 35193ft 508kts
25-Aug-20 01:11 38.362581 -113.011763 31 35191ft 508kts
25-Aug-20 01:12 38.482809 -112.918706 30 35191ft 504kts
25-Aug-20 01:13 38.601860 -112.826599 30 35160ft 500kts
25-Aug-20 01:14 38.720374 -112.734306 30 35129ft 499kts
25-Aug-20 01:15 38.838426 -112.641987 30 35122ft 499kts
25-Aug-20 01:16 38.957509 -112.548426 30 35587ft 503kts
25-Aug-20 01:17 39.076639 -112.454511 29 36180ft 507kts
25-Aug-20 01:18 39.196416 -112.360096 29 36888ft 506kts
25-Aug-20 01:19 39.316403 -112.264374 30 37120ft 507kts
25-Aug-20 01:20 39.436018 -112.168776 30 37121ft 507kts
25-Aug-20 01:21 39.555820 -112.072777 30 37121ft 507kts
25-Aug-20 01:22 39.675319 -111.976640 30 37121ft 507kts
25-Aug-20 01:23 39.795079 -111.879896 30 37121ft 507kts
25-Aug-20 01:24 39.914220 -111.783249 30 37121ft 507kts
25-Aug-20 01:25 40.033714 -111.685906 30 37121ft 507kts
25-Aug-20 01:26 40.153381 -111.588201 30 37121ft 507kts
25-Aug-20 01:27 40.272561 -111.490606 30 37121ft 507kts
25-Aug-20 01:28 40.391689 -111.392365 30 37121ft 507kts
25-Aug-20 01:29 40.510858 -111.293325 30 37121ft 508kts
25-Aug-20 01:30 40.629921 -111.193967 30 37178ft 508kts
25-Aug-20 01:31 40.749118 -111.094339 30 37309ft 507kts
25-Aug-20 01:32 40.867350 -110.995095 30 37347ft 502kts
25-Aug-20 01:33 40.984211 -110.896624 30 37350ft 498kts
25-Aug-20 01:34 41.101188 -110.797710 31 37350ft 503kts
25-Aug-20 01:35 41.220274 -110.696900 31 37350ft 514kts
25-Aug-20 01:36 41.341469 -110.593512 31 37349ft 520kts
25-Aug-20 01:37 41.462949 -110.489327 31 37349ft 520kts
25-Aug-20 01:38 41.584052 -110.385047 31 37349ft 520kts
25-Aug-20 01:39 41.705537 -110.279531 32 37349ft 520kts
25-Aug-20 01:40 41.826413 -110.174141 31 37349ft 520kts
25-Aug-20 01:41 41.947314 -110.068564 31 37349ft 520kts
25-Aug-20 01:42 42.068268 -109.962463 31 37341ft 520kts
25-Aug-20 01:44 42.189283 -109.856137 31 37319ft 520kts
25-Aug-20 01:45 42.310234 -109.749185 31 37314ft 520kts
25-Aug-20 01:46 42.430936 -109.641803 31 37319ft 520kts
25-Aug-20 01:47 42.551191 -109.534309 31 37321ft 520kts
25-Aug-20 01:48 42.671589 -109.426180 31 37321ft 520kts
25-Aug-20 01:49 42.792248 -109.317181 32 37286ft 521kts
25-Aug-20 01:50 42.912324 -109.207847 32 37215ft 518kts
25-Aug-20 01:51 43.028691 -109.101647 30 37177ft 502kts
25-Aug-20 01:52 43.144219 -108.996255 30 37178ft 498kts
25-Aug-20 01:53 43.258848 -108.891210 30 37166ft 496kts
25-Aug-20 01:54 43.373430 -108.785441 30 37147ft 496kts
25-Aug-20 01:55 43.487358 -108.679789 30 37140ft 496kts
25-Aug-20 01:56 43.601782 -108.573148 30 37133ft 496kts
25-Aug-20 01:57 43.715710 -108.466459 30 37088ft 496kts
25-Aug-20 01:58 43.829683 -108.359229 30 37054ft 497kts
25-Aug-20 01:59 43.943367 -108.251276 31 37048ft 497kts
25-Aug-20 02:00 44.057051 -108.143105 31 37047ft 497kts
25-Aug-20 02:00 44.151836 -108.052883 31 37047ft 497kts
25-Aug-20 02:02 44.284922 -107.925693 31 37036ft 497kts
25-Aug-20 02:03 44.398558 -107.816250 31 37017ft 497kts
25-Aug-20 02:03 44.493032 -107.724834 31 37011ft 497kts
25-Aug-20 02:05 44.625284 -107.596235 31 37013ft 497kts
25-Aug-20 02:05 44.719865 -107.503803 31 37022ft 497kts
25-Aug-20 02:06 44.833181 -107.392563 31 37026ft 497kts
25-Aug-20 02:07 44.945971 -107.281001 32 37026ft 498kts
25-Aug-20 02:08 45.059578 -107.168101 31 37025ft 503kts
25-Aug-20 02:09 45.174408 -107.054027 31 37026ft 508kts
25-Aug-20 02:10 45.289450 -106.939054 31 37026ft 506kts
25-Aug-20 02:11 45.404070 -106.823779 32 37026ft 505kts
25-Aug-20 02:12 45.517935 -106.708516 30 37014ft 502kts
25-Aug-20 02:13 45.631273 -106.593456 30 37010ft 502kts
25-Aug-20 02:14 45.745041 -106.477258 30 36971ft 502kts
25-Aug-20 02:15 45.858096 -106.361169 30 36929ft 502kts
25-Aug-20 02:16 45.971289 -106.243844 31 36919ft 503kts
25-Aug-20 02:17 46.084430 -106.126317 31 36919ft 503kts
25-Aug-20 02:18 46.197879 -106.008401 31 36919ft 503kts
25-Aug-20 02:19 46.310865 -105.890108 31 36919ft 503kts
25-Aug-20 02:20 46.423915 -105.771048 31 36919ft 503kts
25-Aug-20 02:21 46.536524 -105.651786 31 36919ft 503kts
25-Aug-20 02:22 46.649418 -105.531575 31 36918ft 503kts
25-Aug-20 02:23 46.761992 -105.411068 31 36919ft 503kts
25-Aug-20 02:24 46.874397 -105.289822 32 36934ft 504kts
25-Aug-20 02:25 46.987614 -105.166953 31 36947ft 512kts
25-Aug-20 02:26 47.102695 -105.041827 31 36951ft 520kts
25-Aug-20 02:27 47.218376 -104.915754 31 36951ft 519kts
25-Aug-20 02:28 47.334135 -104.788483 32 36951ft 520kts
25-Aug-20 02:29 47.449436 -104.660950 32 36951ft 519kts
25-Aug-20 02:30 47.564704 -104.532698 32 36952ft 519kts
25-Aug-20 02:31 47.679689 -104.404056 32 36946ft 520kts
25-Aug-20 02:32 47.794724 -104.274295 33 36946ft 521kts
25-Aug-20 02:33 47.909671 -104.143932 32 36944ft 520kts
25-Aug-20 02:34 48.024688 -104.013126 32 36949ft 521kts
25-Aug-20 02:35 48.139317 -103.882127 32 36957ft 520kts
25-Aug-20 02:36 48.254654 -103.751607 29 36961ft 518kts
25-Aug-20 02:37 48.377099 -103.639977 25 36962ft 516kts
25-Aug-20 02:38 48.500040 -103.529900 25 36963ft 516kts
25-Aug-20 02:39 48.622610 -103.419103 25 36962ft 516kts
25-Aug-20 02:40 48.745500 -103.307079 26 36962ft 517kts
25-Aug-20 02:41 48.868119 -103.194433 26 36963ft 517kts
25-Aug-20 02:42 48.990359 -103.081763 25 36963ft 513kts
25-Aug-20 02:43 49.111788 -102.969321 24 36963ft 511kts
25-Aug-20 02:44 49.232423 -102.857508 24 36960ft 509kts
25-Aug-20 02:45 49.353440 -102.744270 24 36963ft 510kts
25-Aug-20 02:46 49.473789 -102.630920 24 36962ft 510kts
25-Aug-20 02:47 49.594418 -102.516597 24 36969ft 509kts
25-Aug-20 02:48 49.714819 -102.401812 24 36970ft 509kts
25-Aug-20 02:49 49.835180 -102.286104 25 36972ft 511kts
25-Aug-20 02:50 49.955499 -102.169745 25 36971ft 511kts
25-Aug-20 02:51 50.075767 -102.053015 25 36970ft 510kts
25-Aug-20 02:52 50.195757 -101.936246 25 36972ft 511kts
25-Aug-20 02:53 50.315648 -101.818617 25 36970ft 510kts
25-Aug-20 02:54 50.435944 -101.699809 25 36970ft 510kts
25-Aug-20 02:55 50.555596 -101.580924 25 36972ft 510kts
25-Aug-20 02:56 50.675444 -101.461090 25 36973ft 511kts
25-Aug-20 02:57 50.795259 -101.340503 26 36986ft 512kts
25-Aug-20 02:58 50.914943 -101.218747 26 36986ft 513kts
25-Aug-20 02:59 51.035640 -101.095779 26 36994ft 522kts
25-Aug-20 03:00 51.157902 -100.970476 26 37020ft 521kts
25-Aug-20 03:01 51.278510 -100.846144 24 37027ft 511kts
25-Aug-20 03:02 51.396115 -100.724170 24 37027ft 503kts
25-Aug-20 03:03 51.513005 -100.602216 24 37025ft 503kts
25-Aug-20 03:04 51.630283 -100.478947 24 37026ft 504kts
25-Aug-20 03:05 51.747239 -100.355219 24 37027ft 504kts
25-Aug-20 03:06 51.864150 -100.230258 25 37026ft 505kts
25-Aug-20 03:07 51.981221 -100.104698 25 37025ft 506kts
25-Aug-20 03:08 52.098088 -99.978685 25 37026ft 506kts
25-Aug-20 03:09 52.215144 -99.852097 25 37026ft 506kts
25-Aug-20 03:10 52.331743 -99.724877 25 37026ft 506kts
25-Aug-20 03:11 52.448501 -99.596549 25 37027ft 506kts
25-Aug-20 03:12 52.563833 -99.468924 25 37026ft 500kts
25-Aug-20 03:13 52.678906 -99.340833 26 37022ft 501kts
25-Aug-20 03:14 52.794021 -99.211285 26 37047ft 502kts
25-Aug-20 03:15 52.909038 -99.081430 25 37118ft 502kts
25-Aug-20 03:16 53.023376 -98.951367 24 37152ft 494kts
25-Aug-20 03:17 53.136042 -98.822964 24 37157ft 497kts
25-Aug-20 03:18 53.251199 -98.691044 24 37156ft 506kts
25-Aug-20 03:19 53.366810 -98.557103 24 37157ft 506kts
25-Aug-20 03:20 53.482232 -98.422544 24 37155ft 506kts
25-Aug-20 03:21 53.597709 -98.286733 25 37156ft 509kts
25-Aug-20 03:22 53.712871 -98.150196 25 37155ft 508kts
25-Aug-20 03:23 53.828510 -98.012590 25 37156ft 508kts
25-Aug-20 03:24 53.943613 -97.874685 25 37153ft 508kts
25-Aug-20 03:25 54.058351 -97.734991 25 37156ft 508kts
25-Aug-20 03:26 54.173220 -97.593582 25 37156ft 509kts
25-Aug-20 03:27 54.288065 -97.451213 25 37155ft 509kts
25-Aug-20 03:28 54.402227 -97.308408 26 37154ft 511kts
25-Aug-20 03:29 54.516016 -97.164460 26 37157ft 504kts
25-Aug-20 03:30 54.629323 -97.020804 26 37158ft 503kts
25-Aug-20 03:31 54.740561 -96.878834 26 37156ft 498kts
25-Aug-20 03:32 54.851687 -96.736005 26 37156ft 498kts
25-Aug-20 03:33 54.962678 -96.592631 28 37164ft 500kts
25-Aug-20 03:34 55.074157 -96.447319 30 37204ft 502kts
25-Aug-20 03:35 55.185075 -96.301495 31 37225ft 502kts
25-Aug-20 03:36 55.296373 -96.153887 31 37234ft 502kts
25-Aug-20 03:37 55.407284 -96.006070 31 37258ft 501kts
25-Aug-20 03:38 55.518196 -95.857255 31 37280ft 502kts
25-Aug-20 03:39 55.628816 -95.707717 31 37283ft 502kts
25-Aug-20 03:40 55.739439 -95.557070 31 37282ft 502kts
25-Aug-20 03:41 55.850002 -95.405385 31 37286ft 503kts
25-Aug-20 03:42 55.960160 -95.252730 32 37283ft 503kts
25-Aug-20 03:43 56.070531 -95.098783 32 37283ft 504kts
25-Aug-20 03:44 56.180737 -94.944731 33 37283ft 502kts
25-Aug-20 03:45 56.290402 -94.789711 35 37285ft 501kts
25-Aug-20 03:46 56.397710 -94.629854 38 37284ft 502kts
25-Aug-20 03:47 56.501733 -94.461953 38 37285ft 502kts
25-Aug-20 03:48 56.605621 -94.293074 39 37283ft 503kts
25-Aug-20 03:49 56.709379 -94.122786 39 37284ft 503kts
25-Aug-20 03:51 56.812973 -93.951982 39 37283ft 503kts
25-Aug-20 03:52 56.916442 -93.780155 39 37285ft 503kts
25-Aug-20 03:53 57.019757 -93.607203 39 37285ft 502kts
25-Aug-20 03:54 57.122058 -93.434689 39 37286ft 498kts
25-Aug-20 03:55 57.223758 -93.262237 40 37281ft 498kts
25-Aug-20 03:56 57.325124 -93.088233 39 37272ft 498kts
25-Aug-20 03:57 57.425745 -92.914071 38 37270ft 494kts
25-Aug-20 03:58 57.525382 -92.740709 38 37269ft 492kts
25-Aug-20 03:59 57.624865 -92.566203 38 37268ft 492kts
25-Aug-20 04:00 57.724300 -92.390310 38 37269ft 492kts
25-Aug-20 04:01 57.823137 -92.213634 39 37268ft 493kts
25-Aug-20 04:02 57.921880 -92.035937 38 37269ft 493kts
25-Aug-20 04:03 58.020508 -91.857207 38 37268ft 493kts
25-Aug-20 04:04 58.119104 -91.677215 38 37270ft 494kts
25-Aug-20 04:05 58.217702 -91.496484 38 37269ft 494kts
25-Aug-20 04:06 58.315690 -91.314617 39 37268ft 494kts
25-Aug-20 04:07 58.413596 -91.130782 39 37269ft 494kts
25-Aug-20 04:08 58.510580 -90.947517 38 37269ft 489kts
25-Aug-20 04:08 58.591019 -90.794702 38 37269ft 489kts
25-Aug-20 04:10 58.703214 -90.579613 38 37268ft 490kts
25-Aug-20 04:11 58.799109 -90.394081 38 37267ft 490kts
25-Aug-20 04:11 58.878789 -90.238359 39 37261ft 491kts
25-Aug-20 04:13 58.987874 -90.022569 40 37254ft 474kts
25-Aug-20 04:13 59.057101 -89.858234 44 37237ft 473kts
25-Aug-20 04:15 59.151201 -89.622979 44 37229ft 473kts
25-Aug-20 04:15 59.218519 -89.453548 44 37232ft 473kts
25-Aug-20 04:16 59.298503 -89.249767 45 37230ft 475kts
25-Aug-20 04:17 59.378622 -89.043682 45 37231ft 475kts
25-Aug-20 04:18 59.458254 -88.837440 45 37232ft 474kts
25-Aug-20 04:19 59.537278 -88.630882 45 37231ft 473kts
25-Aug-20 04:20 59.615812 -88.423822 45 37231ft 473kts
25-Aug-20 04:21 59.694303 -88.214652 46 37231ft 475kts
25-Aug-20 04:22 59.772733 -88.003885 46 37232ft 475kts
25-Aug-20 04:23 59.850580 -87.793030 46 37232ft 475kts
25-Aug-20 04:24 59.928399 -87.580374 46 37232ft 476kts
25-Aug-20 04:25 60.005912 -87.366632 46 37232ft 476kts
25-Aug-20 04:26 60.083138 -87.151193 47 37232ft 477kts
25-Aug-20 04:27 60.160306 -86.935304 47 37232ft 477kts
25-Aug-20 04:28 60.236830 -86.718901 47 37232ft 477kts
25-Aug-20 04:29 60.313062 -86.500845 47 37232ft 477kts
25-Aug-20 04:30 60.389049 -86.281210 48 37228ft 478kts
25-Aug-20 04:31 60.464655 -86.060251 47 37187ft 479kts
25-Aug-20 04:32 60.540215 -85.837725 47 37147ft 479kts
25-Aug-20 04:33 60.615407 -85.614226 47 37139ft 480kts
25-Aug-20 04:34 60.690083 -85.390136 47 37139ft 480kts
25-Aug-20 04:35 60.764793 -85.163251 48 37138ft 481kts
25-Aug-20 04:36 60.839050 -84.935829 48 37138ft 483kts
25-Aug-20 04:37 60.913234 -84.706545 48 37139ft 482kts
25-Aug-20 04:38 60.986807 -84.476909 48 37139ft 483kts
25-Aug-20 04:39 61.060199 -84.245288 49 37138ft 484kts
25-Aug-20 04:40 61.133718 -84.011465 49 37140ft 484kts
25-Aug-20 04:41 61.206537 -83.778215 49 37139ft 485kts
25-Aug-20 04:42 61.279236 -83.542088 49 37139ft 485kts
25-Aug-20 04:43 61.351382 -83.305127 50 37138ft 486kts
25-Aug-20 04:44 61.423141 -83.066486 50 37139ft 487kts
25-Aug-20 04:45 61.494978 -82.825790 51 37138ft 491kts
25-Aug-20 04:46 61.566832 -82.582157 51 37139ft 492kts
25-Aug-20 04:47 61.638145 -82.337852 52 37137ft 493kts
25-Aug-20 04:48 61.708639 -82.093226 52 37138ft 493kts
25-Aug-20 04:49 61.779432 -81.845386 52 37139ft 494kts
25-Aug-20 04:50 61.849783 -81.596463 52 37139ft 494kts
25-Aug-20 04:51 61.919914 -81.345589 52 37139ft 495kts
25-Aug-20 04:52 61.989361 -81.093852 53 37138ft 496kts
25-Aug-20 04:53 62.059095 -80.839222 54 37139ft 500kts
25-Aug-20 04:54 62.128524 -80.582483 54 37139ft 500kts
25-Aug-20 04:55 62.197548 -80.324943 55 37135ft 501kts
25-Aug-20 04:56 62.265751 -80.064895 57 37058ft 502kts
25-Aug-20 04:57 62.320740 -79.786670 64 37014ft 509kts
25-Aug-20 04:58 62.369583 -79.501225 64 37002ft 509kts
25-Aug-20 04:59 62.417982 -79.215373 65 37001ft 509kts
25-Aug-20 05:00 62.466355 -78.926756 68 37009ft 512kts
25-Aug-20 05:01 62.513828 -78.637013 68 37022ft 511kts
25-Aug-20 05:02 62.560814 -78.346464 68 37036ft 511kts
25-Aug-20 05:03 62.607093 -78.055429 68 37044ft 512kts
25-Aug-20 05:04 62.652936 -77.762823 68 37046ft 512kts
25-Aug-20 05:05 62.698207 -77.469042 68 37046ft 512kts
25-Aug-20 05:06 62.742711 -77.175083 69 37045ft 512kts
25-Aug-20 05:07 62.787026 -76.878247 71 37044ft 518kts
25-Aug-20 05:08 62.830888 -76.578567 72 37046ft 518kts
25-Aug-20 05:09 62.873966 -76.278530 73 37045ft 518kts
25-Aug-20 05:10 62.916418 -75.977766 73 37045ft 517kts
25-Aug-20 05:11 62.958300 -75.676011 73 37046ft 518kts
25-Aug-20 05:12 62.999173 -75.375711 72 37046ft 510kts
25-Aug-20 05:13 63.039261 -75.076169 73 37043ft 511kts
25-Aug-20 05:14 63.079388 -74.771920 75 37046ft 519kts
25-Aug-20 05:15 63.118818 -74.466576 75 37045ft 519kts
25-Aug-20 05:16 63.157928 -74.159444 76 37046ft 519kts
25-Aug-20 05:17 63.196016 -73.851896 76 37046ft 518kts
25-Aug-20 05:18 63.233475 -73.543138 76 37045ft 518kts
25-Aug-20 05:19 63.270087 -73.235066 77 37046ft 518kts
25-Aug-20 05:20 63.305877 -72.928536 78 37044ft 503kts
25-Aug-20 05:21 63.340035 -72.627938 78 37044ft 500kts
25-Aug-20 05:22 63.373539 -72.327513 79 36985ft 500kts
25-Aug-20 05:23 63.406459 -72.025586 79 36950ft 500kts
25-Aug-20 05:24 63.438635 -71.724478 79 36945ft 500kts
25-Aug-20 05:25 63.470302 -71.421845 79 36945ft 500kts
25-Aug-20 05:26 63.501246 -71.118796 80 36945ft 499kts
25-Aug-20 05:27 63.531567 -70.815152 81 36944ft 501kts
25-Aug-20 05:28 63.561414 -70.509401 81 36945ft 502kts
25-Aug-20 05:29 63.590482 -70.204175 82 36945ft 501kts
25-Aug-20 05:30 63.618936 -69.897358 82 36945ft 501kts
25-Aug-20 05:31 63.646767 -69.590150 82 36945ft 501kts
25-Aug-20 05:32 63.673892 -69.282964 83 36945ft 501kts
25-Aug-20 05:33 63.700250 -68.975295 82 36946ft 498kts
25-Aug-20 05:34 63.725837 -68.669831 82 36945ft 495kts
25-Aug-20 05:35 63.749805 -68.363309 83 36946ft 494kts
25-Aug-20 05:36 63.769286 -68.056160 85 36945ft 494kts
25-Aug-20 05:37 63.788400 -67.748761 84 36945ft 494kts
25-Aug-20 05:38 63.807001 -67.440888 84 36945ft 495kts
25-Aug-20 05:39 63.824927 -67.132301 85 36945ft 495kts
25-Aug-20 05:40 63.842231 -66.821557 85 36944ft 498kts
25-Aug-20 05:41 63.858993 -66.509807 85 36945ft 499kts
25-Aug-20 05:42 63.875066 -66.197731 86 36945ft 498kts
25-Aug-20 05:43 63.890467 -65.884783 86 36945ft 498kts
25-Aug-20 05:44 63.905174 -65.572147 86 36945ft 498kts
25-Aug-20 05:45 63.919202 -65.259759 87 36945ft 498kts
25-Aug-20 05:46 63.932567 -64.946355 87 36944ft 499kts
25-Aug-20 05:47 63.945394 -64.629531 87 36945ft 505kts
25-Aug-20 05:48 63.957603 -64.311416 88 36944ft 504kts
25-Aug-20 05:49 63.969039 -63.993768 88 36945ft 504kts
25-Aug-20 05:50 63.979734 -63.676841 88 36945ft 505kts
25-Aug-20 05:51 63.989824 -63.357141 88 36945ft 504kts
25-Aug-20 05:52 63.999301 -63.038893 87 36944ft 504kts
25-Aug-20 05:53 64.019776 -62.723005 82 36945ft 504kts
25-Aug-20 05:54 64.041897 -62.407873 82 36952ft 504kts
25-Aug-20 05:55 64.063181 -62.091310 83 36969ft 504kts
25-Aug-20 05:56 64.083702 -61.775202 83 36970ft 504kts
25-Aug-20 05:58 64.103607 -61.458487 83 36969ft 504kts
25-Aug-20 05:59 64.123248 -61.141357 84 36973ft 503kts
25-Aug-20 06:00 64.141776 -60.823100 84 36973ft 512kts
25-Aug-20 06:01 64.159964 -60.497977 84 36972ft 515kts
25-Aug-20 06:02 64.177388 -60.172580 85 36971ft 515kts
25-Aug-20 06:03 64.194084 -59.846487 85 36971ft 515kts
25-Aug-20 06:04 64.210020 -59.520281 85 36971ft 515kts
25-Aug-20 06:05 64.225141 -59.193876 86 36972ft 515kts
25-Aug-20 06:06 64.234731 -58.867317 90 36973ft 512kts
25-Aug-20 06:07 64.235650 -58.541021 90 36971ft 510kts
25-Aug-20 06:08 64.235880 -58.215851 91 36971ft 510kts
25-Aug-20 06:09 64.235410 -57.889987 91 36949ft 510kts
25-Aug-20 06:10 64.234203 -57.564726 91 36940ft 510kts
25-Aug-20 06:11 64.232273 -57.238334 92 36940ft 510kts
25-Aug-20 06:12 64.229467 -56.912178 90 36939ft 517kts
25-Aug-20 06:13 64.226128 -56.584864 89 36940ft 512kts
25-Aug-20 06:13 64.222820 -56.312243 90 36939ft 512kts
25-Aug-20 06:15 64.217247 -55.930996 90 36940ft 512kts
25-Aug-20 06:15 64.212660 -55.659617 90 36940ft 512kts
25-Aug-20 06:17 64.205371 -55.278909 91 36940ft 512kts
25-Aug-20 06:18 64.198299 -54.952174 90 36941ft 509kts
25-Aug-20 06:18 64.191953 -54.682734 90 36940ft 509kts
25-Aug-20 06:20 64.182226 -54.305963 91 36939ft 509kts
25-Aug-20 06:20 64.174649 -54.035936 91 36940ft 509kts
25-Aug-20 06:21 64.164906 -53.712491 91 36940ft 509kts
25-Aug-20 06:22 64.154437 -53.389126 91 36940ft 509kts
25-Aug-20 06:23 64.143272 -53.065960 92 36940ft 509kts
25-Aug-20 06:24 64.131423 -52.744602 92 36940ft 505kts
25-Aug-20 06:25 64.118984 -52.425625 92 36940ft 504kts
25-Aug-20 06:26 64.105788 -52.105961 93 36940ft 505kts
25-Aug-20 06:27 64.091879 -51.786483 93 36940ft 505kts
25-Aug-20 06:28 64.077340 -51.468648 93 36940ft 505kts
25-Aug-20 06:29 64.062039 -51.150029 94 36940ft 505kts
25-Aug-20 06:30 64.046104 -50.832940 94 36940ft 499kts
25-Aug-20 06:31 64.029573 -50.519387 94 36940ft 498kts
25-Aug-20 06:32 64.012240 -50.205509 95 36940ft 499kts
25-Aug-20 06:33 64.004537 -49.891526 85 36938ft 496kts
25-Aug-20 06:34 64.014403 -49.579026 83 36940ft 495kts
25-Aug-20 06:35 64.024073 -49.265635 84 36940ft 496kts
25-Aug-20 06:36 64.032897 -48.953460 84 36942ft 489kts
25-Aug-20 06:37 64.040982 -48.645110 84 36940ft 488kts
25-Aug-20 06:38 64.048408 -48.336533 85 36940ft 488kts
25-Aug-20 06:39 64.055172 -48.027223 85 36940ft 488kts
25-Aug-20 06:40 64.061270 -47.718770 85 36939ft 488kts
25-Aug-20 06:41 64.066740 -47.408690 85 36939ft 488kts
25-Aug-20 06:42 64.071527 -47.099666 86 36940ft 488kts
25-Aug-20 06:43 64.075759 -46.791004 87 36940ft 484kts
25-Aug-20 06:44 64.079151 -46.483735 87 36940ft 484kts
25-Aug-20 06:45 64.081932 -46.176775 88 36939ft 484kts
25-Aug-20 06:46 64.084099 -45.869789 88 36940ft 484kts
25-Aug-20 06:47 64.085622 -45.562151 88 36939ft 484kts
25-Aug-20 06:48 64.086493 -45.254076 89 36940ft 484kts
25-Aug-20 06:49 64.086775 -44.947424 90 36940ft 482kts
25-Aug-20 06:50 64.086338 -44.641523 90 36940ft 482kts
25-Aug-20 06:51 64.085233 -44.334647 91 36940ft 482kts
25-Aug-20 06:52 64.083529 -44.029291 91 36940ft 482kts
25-Aug-20 06:53 64.081210 -43.726455 91 36940ft 482kts
25-Aug-20 06:54 64.078223 -43.420659 91 36940ft 482kts
25-Aug-20 06:55 64.074623 -43.115707 92 36939ft 482kts
25-Aug-20 06:56 64.070370 -42.808663 92 36940ft 483kts
25-Aug-20 06:57 64.065419 -42.502533 92 36940ft 483kts
25-Aug-20 06:58 64.059845 -42.196267 93 36940ft 483kts
25-Aug-20 06:59 64.053636 -41.890395 93 36940ft 483kts
25-Aug-20 07:00 64.046774 -41.584134 93 36932ft 483kts
25-Aug-20 07:01 64.039283 -41.279133 94 36896ft 483kts
25-Aug-20 07:02 64.031117 -40.972924 94 36886ft 483kts
25-Aug-20 07:03 64.022266 -40.667320 94 36885ft 485kts
25-Aug-20 07:04 64.012753 -40.361269 94 36885ft 485kts
25-Aug-20 07:05 64.002491 -40.054677 95 36885ft 485kts
25-Aug-20 07:06 63.985132 -39.750596 98 36885ft 485kts
25-Aug-20 07:07 63.965351 -39.447788 98 36885ft 485kts
25-Aug-20 07:08 63.944893 -39.144934 99 36885ft 484kts
25-Aug-20 07:09 63.923692 -38.841828 98 36884ft 489kts
25-Aug-20 07:10 63.901784 -38.536923 98 36885ft 489kts
25-Aug-20 07:11 63.878711 -38.232350 99 36885ft 490kts
25-Aug-20 07:12 63.855395 -37.929147 99 36912ft 490kts
25-Aug-20 07:13 63.831509 -37.625614 99 36935ft 490kts
25-Aug-20 07:14 63.807000 -37.322694 100 36938ft 490kts
25-Aug-20 07:15 63.781791 -37.019269 99 36937ft 491kts
25-Aug-20 07:16 63.755942 -36.716354 99 36938ft 493kts
25-Aug-20 07:17 63.729365 -36.413033 99 36938ft 493kts
25-Aug-20 07:18 63.702221 -36.110780 100 36938ft 493kts
25-Aug-20 07:19 63.674327 -35.808001 100 36938ft 493kts
25-Aug-20 07:20 63.645915 -35.507319 100 36938ft 493kts
25-Aug-20 07:21 63.616811 -35.206285 101 36938ft 493kts
25-Aug-20 07:22 63.587138 -34.906378 101 36938ft 492kts
25-Aug-20 07:23 63.556834 -34.607396 101 36938ft 492kts
25-Aug-20 07:24 63.525917 -34.309006 102 36938ft 492kts
25-Aug-20 07:25 63.494355 -34.010603 102 36899ft 492kts
25-Aug-20 07:26 63.462275 -33.714213 102 36863ft 492kts
25-Aug-20 07:27 63.429439 -33.417287 102 36857ft 492kts
25-Aug-20 07:28 63.396057 -33.121218 103 36856ft 492kts
25-Aug-20 07:29 63.362264 -32.827867 103 36857ft 488kts
25-Aug-20 07:30 63.327900 -32.535527 103 36856ft 488kts
25-Aug-20 07:31 63.293025 -32.244507 104 36857ft 488kts
25-Aug-20 07:32 63.257594 -31.954272 104 36856ft 488kts
25-Aug-20 07:33 63.221547 -31.664893 104 36856ft 488kts
25-Aug-20 07:34 63.184890 -31.376131 104 36856ft 488kts
25-Aug-20 07:35 63.147701 -31.087962 105 36856ft 488kts
25-Aug-20 07:36 63.109684 -30.799234 105 36856ft 490kts
25-Aug-20 07:37 63.071062 -30.511675 105 36856ft 490kts
25-Aug-20 07:38 63.031670 -30.223812 106 36857ft 490kts
25-Aug-20 07:39 62.996592 -29.934827 99 36855ft 489kts
25-Aug-20 07:40 62.976034 -29.640164 98 36856ft 489kts
25-Aug-20 07:41 62.955013 -29.344613 99 36856ft 489kts
25-Aug-20 07:42 62.933435 -29.050628 99 36856ft 489kts
25-Aug-20 07:43 62.911119 -28.755272 99 36856ft 493kts
25-Aug-20 07:44 62.887735 -28.459338 99 36856ft 494kts
25-Aug-20 07:45 62.863622 -28.162589 100 36856ft 494kts
25-Aug-20 07:46 62.839238 -27.866937 100 36856ft 494kts
25-Aug-20 07:47 62.814284 -27.572189 100 36856ft 494kts
25-Aug-20 07:48 62.788752 -27.278276 101 36857ft 494kts
25-Aug-20 07:49 62.762579 -26.983780 101 36856ft 495kts
25-Aug-20 07:50 62.735549 -26.688014 101 36856ft 499kts
25-Aug-20 07:51 62.707830 -26.392242 101 36856ft 499kts
25-Aug-20 07:52 62.679507 -26.096536 102 36856ft 499kts
25-Aug-20 07:53 62.650588 -25.801933 102 36856ft 499kts
25-Aug-20 07:54 62.620986 -25.507480 102 36856ft 499kts
25-Aug-20 07:55 62.590891 -25.214544 103 36856ft 499kts
25-Aug-20 07:56 62.559943 -24.919556 103 36855ft 505kts
25-Aug-20 07:57 62.528102 -24.623427 103 36856ft 506kts
25-Aug-20 07:58 62.495639 -24.327842 104 36856ft 506kts
25-Aug-20 07:59 62.462596 -24.032692 104 36856ft 506kts
25-Aug-20 08:00 62.428873 -23.738147 104 36856ft 506kts
25-Aug-20 08:01 62.394590 -23.444895 104 36856ft 506kts
25-Aug-20 08:02 62.359579 -23.150964 105 36856ft 505kts
25-Aug-20 08:03 62.324074 -22.858854 105 36855ft 509kts
25-Aug-20 08:05 62.287437 -22.563617 105 36856ft 513kts
25-Aug-20 08:06 62.250103 -22.268312 106 36856ft 513kts
25-Aug-20 08:07 62.212229 -21.974095 106 36856ft 513kts
25-Aug-20 08:08 62.173693 -21.680734 106 36856ft 513kts
25-Aug-20 08:09 62.134439 -21.387467 106 36857ft 513kts
25-Aug-20 08:10 62.094755 -21.095814 107 36856ft 513kts
25-Aug-20 08:11 62.054297 -20.804068 107 36856ft 515kts
25-Aug-20 08:12 62.012971 -20.511522 107 36857ft 515kts
25-Aug-20 08:13 61.971251 -20.220862 108 36857ft 514kts
25-Aug-20 08:14 61.928970 -19.931620 108 36857ft 514kts
25-Aug-20 08:15 61.885861 -19.642848 109 36857ft 514kts
25-Aug-20 08:16 61.841847 -19.354892 108 36857ft 514kts
25-Aug-20 08:17 61.797805 -19.068269 109 36856ft 514kts
25-Aug-20 08:18 61.752926 -18.781084 109 36856ft 515kts
25-Aug-20 08:19 61.707448 -18.494915 109 36857ft 515kts
25-Aug-20 08:20 61.661519 -18.210101 110 36856ft 515kts
25-Aug-20 08:20 61.622622 -17.972296 110 36857ft 515kts
25-Aug-20 08:22 61.567634 -17.641711 110 36857ft 515kts
25-Aug-20 08:23 61.519904 -17.359558 110 36857ft 515kts
25-Aug-20 08:23 61.479754 -17.125006 111 36857ft 515kts
25-Aug-20 08:24 61.430883 -16.843540 112 36855ft 516kts
25-Aug-20 08:26 61.372923 -16.515819 112 36856ft 517kts
25-Aug-20 08:26 61.330910 -16.281563 113 36844ft 518kts
25-Aug-20 08:27 61.280163 -16.001967 113 36832ft 517kts
25-Aug-20 08:28 61.228808 -15.723444 113 36830ft 517kts
25-Aug-20 08:29 61.176878 -15.445982 113 36828ft 517kts
25-Aug-20 08:30 61.124350 -15.168779 114 36829ft 517kts
25-Aug-20 08:31 61.071193 -14.891880 115 36824ft 520kts
25-Aug-20 08:32 61.017524 -14.617221 115 36829ft 515kts
25-Aug-20 08:33 60.963527 -14.344597 116 36830ft 515kts
25-Aug-20 08:34 60.909084 -14.072552 116 36831ft 514kts
25-Aug-20 08:35 60.853686 -13.802103 116 36827ft 515kts
25-Aug-20 08:36 60.797949 -13.532412 116 36832ft 516kts
25-Aug-20 08:37 60.741809 -13.263196 117 36829ft 515kts
25-Aug-20 08:38 60.684910 -12.993510 117 36828ft 519kts
25-Aug-20 08:39 60.626961 -12.723087 118 36828ft 522kts
25-Aug-20 08:40 60.568507 -12.453879 118 36828ft 522kts
25-Aug-20 08:41 60.509401 -12.184464 119 36838ft 521kts
25-Aug-20 08:42 60.449869 -11.916968 118 36852ft 522kts
25-Aug-20 08:43 60.389824 -11.650605 119 36853ft 521kts
25-Aug-20 08:44 60.329103 -11.384724 118 36855ft 522kts
25-Aug-20 08:45 60.267823 -11.119147 120 36853ft 522kts
25-Aug-20 08:46 60.206233 -10.855797 120 36853ft 522kts
25-Aug-20 08:47 60.143780 -10.592445 120 36856ft 522kts
25-Aug-20 08:48 60.080990 -10.331247 121 36852ft 523kts
25-Aug-20 08:49 60.020510 -10.067328 115 36855ft 527kts
25-Aug-20 08:50 59.984433 -9.781852 101 36848ft 536kts
25-Aug-20 08:51 59.944821 -9.500497 123 36857ft 519kts
25-Aug-20 08:52 59.857063 -9.280055 141 36858ft 511kts
25-Aug-20 08:53 59.755744 -9.079608 141 36801ft 516kts
25-Aug-20 08:54 59.654482 -8.878473 141 36613ft 516kts
25-Aug-20 08:55 59.552961 -8.678244 141 36515ft 517kts
25-Aug-20 08:56 59.451160 -8.479280 141 36501ft 516kts
25-Aug-20 08:57 59.349322 -8.281820 142 36497ft 516kts
25-Aug-20 08:58 59.247245 -8.085475 142 36500ft 516kts
25-Aug-20 08:59 59.144483 -7.889908 142 36500ft 516kts
25-Aug-20 09:00 59.041694 -7.696048 142 36530ft 517kts
25-Aug-20 09:01 58.938772 -7.503854 140 36562ft 511kts
25-Aug-20 09:02 58.836853 -7.315476 140 36574ft 507kts
25-Aug-20 09:03 58.734857 -7.127843 140 36580ft 508kts
25-Aug-20 09:04 58.632233 -6.940919 140 36581ft 509kts
25-Aug-20 09:05 58.529193 -6.754793 140 36583ft 510kts
25-Aug-20 09:06 58.426124 -6.570260 140 36581ft 509kts
25-Aug-20 09:07 58.322364 -6.386221 140 36581ft 510kts
25-Aug-20 09:08 58.214101 -6.214921 149 36579ft 505kts
25-Aug-20 09:09 58.091260 -6.090988 161 36581ft 498kts
25-Aug-20 09:10 57.963531 -5.991127 161 36581ft 498kts
25-Aug-20 09:11 57.835964 -5.891497 161 36580ft 498kts
25-Aug-20 09:12 57.707875 -5.792172 160 36580ft 500kts
25-Aug-20 09:13 57.579487 -5.693187 160 36579ft 500kts
25-Aug-20 09:14 57.451032 -5.594969 160 36521ft 499kts
25-Aug-20 09:15 57.322784 -5.497704 160 36379ft 500kts
25-Aug-20 09:16 57.194114 -5.400898 160 36335ft 500kts
25-Aug-20 09:17 57.065133 -5.304667 160 36326ft 507kts
25-Aug-20 09:18 56.933037 -5.206408 158 36330ft 515kts
25-Aug-20 09:19 56.800109 -5.108465 158 36331ft 515kts
25-Aug-20 09:20 56.667791 -5.012012 158 36333ft 514kts
25-Aug-20 09:21 56.535144 -4.916072 157 36331ft 509kts
25-Aug-20 09:22 56.405137 -4.822557 157 36325ft 500kts
25-Aug-20 09:23 56.276752 -4.730930 157 36271ft 497kts
25-Aug-20 09:24 56.148220 -4.639977 157 36250ft 497kts
25-Aug-20 09:25 56.019546 -4.549688 157 36248ft 498kts
25-Aug-20 09:26 55.890801 -4.458993 154 36250ft 497kts
25-Aug-20 09:27 55.769010 -4.344947 150 36246ft 496kts
25-Aug-20 09:28 55.648703 -4.226400 150 36245ft 496kts
25-Aug-20 09:29 55.528172 -4.108181 150 36236ft 496kts
25-Aug-20 09:30 55.407141 -3.990721 150 36233ft 496kts
25-Aug-20 09:31 55.286213 -3.874368 150 36224ft 497kts
25-Aug-20 09:32 55.165443 -3.758686 150 36216ft 496kts
25-Aug-20 09:33 55.044607 -3.643704 150 36220ft 497kts
25-Aug-20 09:34 54.925103 -3.530205 153 36235ft 486kts
25-Aug-20 09:35 54.803232 -3.416654 154 36233ft 508kts
25-Aug-20 09:36 54.677092 -3.306851 160 36169ft 506kts
25-Aug-20 09:37 54.548360 -3.210103 160 36139ft 507kts
25-Aug-20 09:38 54.418704 -3.113625 160 36497ft 509kts
25-Aug-20 09:39 54.289408 -3.018204 160 37495ft 505kts
25-Aug-20 09:40 54.159121 -2.935099 165 38372ft 498kts
25-Aug-20 09:41 54.028360 -2.860001 165 39141ft 495kts
25-Aug-20 09:42 53.898221 -2.785933 165 39735ft 495kts
25-Aug-20 09:43 53.767503 -2.712276 166 40131ft 495kts
25-Aug-20 09:44 53.636680 -2.638870 166 40156ft 496kts
25-Aug-20 09:45 53.505870 -2.565894 165 40209ft 496kts
25-Aug-20 09:46 53.375507 -2.493633 166 40229ft 495kts
25-Aug-20 09:47 53.244628 -2.421592 166 40240ft 496kts
25-Aug-20 09:48 53.221288 -2.408802 165 40240ft 495kts
25-Aug-20 09:49 53.184542 -2.388712 166 40128ft 496kts
25-Aug-20 09:50 53.055749 -2.313537 164 39015ft 489kts
25-Aug-20 09:51 52.933586 -2.202268 159 35224ft 523kts
25-Aug-20 09:52 52.809342 -2.073096 158 30960ft 534kts
25-Aug-20 09:53 52.687264 -1.946224 158 25205ft 496kts
25-Aug-20 09:54 52.571637 -1.827280 158 23015ft 483kts
25-Aug-20 09:55 52.460446 -1.713435 158 20774ft 461kts
25-Aug-20 09:56 52.360599 -1.611302 160 19999ft 380kts
25-Aug-20 09:57 52.281540 -1.531463 163 19541ft 307kts
25-Aug-20 09:58 52.210497 -1.457912 156 19396ft 338kts
25-Aug-20 09:59 52.132381 -1.349381 150 16669ft 385kts
25-Aug-20 10:00 52.052633 -1.237389 150 15034ft 372kts
25-Aug-20 10:01 51.979646 -1.136187 152 14940ft 315kts
25-Aug-20 10:02 51.917402 -1.050679 153 14405ft 283kts
25-Aug-20 10:03 51.859156 -0.969476 144 13510ft 276kts
25-Aug-20 10:04 51.821163 -0.858630 126 12669ft 279kts
25-Aug-20 10:05 51.787804 -0.749086 126 11851ft 265kts
25-Aug-20 10:07 51.755453 -0.644308 126 10463ft 257kts
25-Aug-20 10:08 51.725266 -0.542088 116 8737ft 252kts
25-Aug-20 10:09 51.703328 -0.434174 115 7067ft 264kts
25-Aug-20 10:10 51.677681 -0.318489 120 5499ft 281kts
25-Aug-20 10:11 51.632340 -0.218987 136 4175ft 273kts
25-Aug-20 10:12 51.575399 -0.144198 156 3065ft 257kts
25-Aug-20 10:13 51.511671 -0.111091 185 2502ft 219kts
25-Aug-20 10:14 51.478778 -0.156568 262 2509ft 154kts
25-Aug-20 10:15 51.478603 -0.220549 264 2520ft 135kts
25-Aug-20 10:16 51.478302 -0.280091 263 1972ft 132kts
25-Aug-20 10:17 51.478009 -0.331402 263 1391ft 132kts
25-Aug-20 10:18 51.477707 -0.389883 266 680ft 131kts
25-Aug-20 10:19 51.477600 -0.445024 270 96ft 82kts
25-Aug-20 10:20 51.475704 -0.454666 188 92ft 11kts
25-Aug-20 10:21 51.475167 -0.459740 269 89ft 15kts
25-Aug-20 10:22 51.474952 -0.468433 265 86ft 20kts
25-Aug-20 10:23 51.473476 -0.473565 182 89ft 11kts
25-Aug-20 10:23 51.470506 -0.473549 180 86ft 10kts
25-Aug-20 10:25 51.469809 -0.474983 269 86ft 0kts
25-Aug-20 10:26 51.469809 -0.474983 269 86ft 0kts
25-Aug-20 10:26 51.469809 -0.474983 269 86ft 0kts
25-Aug-20 10:28 51.469809 -0.474983 269 86ft 0kts
25-Aug-20 10:28 51.469809 -0.474983 269 86ft 0kts
25-Aug-20 10:29 51.469809 -0.474983 269 86ft 0kts
25-Aug-20 10:30 51.469809 -0.474983 269 86ft 0kts
25-Aug-20 10:31 51.469809 -0.474983 269 86ft 0kts

Navigation Log

Ident Type
Flight plan parsing failed, navigation log unavailable